Time;durP1;ratioP1;P1;durP2;ratioP2;P2;SDS_P1;SDS_P2;PMS_P1;PMS_P2;Temp;Humidity;BMP_temperature;BMP_pressure;BME280_temperature;BME280_humidity;BME280_pressure;Samples;Min_cycle;Max_cycle;Signal;HPM_P1;HPM_P2
2023/11/07 00:00:34;;;;;;;1.97;1.07;;;;;;;10.33;99.23;97775.28;4205370;28;20642;-86
2023/11/07 00:02:37;;;;;;;1.20;1.00;;;;;;;10.38;98.86;97778.38;4178114;28;20639;-86
2023/11/07 00:04:41;;;;;;;1.30;0.83;;;;;;;10.42;98.64;97778.03;4207473;28;20737;-86
2023/11/07 00:06:46;;;;;;;4.47;1.10;;;;;;;10.41;99.59;97772.94;4185498;28;20727;-86
2023/11/07 00:08:50;;;;;;;1.10;0.80;;;;;;;10.43;99.00;97776.25;4188391;28;21068;-86
2023/11/07 00:10:54;;;;;;;1.70;1.03;;;;;;;10.45;99.25;97779.59;4188144;28;20720;-86
2023/11/07 00:12:57;;;;;;;1.80;1.27;;;;;;;10.45;99.70;97779.59;4185551;28;20748;-86
2023/11/07 00:15:01;;;;;;;1.30;0.80;;;;;;;10.48;99.41;97784.59;4171854;28;20657;-86
2023/11/07 00:17:04;;;;;;;2.13;0.83;;;;;;;10.51;99.04;97781.75;4189872;28;20636;-87
2023/11/07 00:19:07;;;;;;;2.00;0.97;;;;;;;10.54;98.72;97791.94;4201571;28;20640;-86
2023/11/07 00:21:11;;;;;;;1.37;0.90;;;;;;;10.57;98.41;97791.72;4199482;28;20646;-86
2023/11/07 00:23:15;;;;;;;2.07;1.30;;;;;;;10.56;98.53;97798.72;4193581;28;20670;-86
2023/11/07 00:25:19;;;;;;;1.80;1.33;;;;;;;10.58;97.85;97789.00;4187698;28;20660;-86
2023/11/07 00:27:22;;;;;;;2.53;1.33;;;;;;;10.60;98.15;97804.53;4191692;28;21101;-86
2023/11/07 00:29:25;;;;;;;2.05;1.05;;;;;;;10.59;98.08;97795.88;4174442;28;20686;-86
2023/11/07 00:31:29;;;;;;;1.90;1.10;;;;;;;10.59;97.97;97801.09;4188102;28;20235;-86
2023/11/07 00:33:32;;;;;;;1.50;1.10;;;;;;;10.58;98.25;97798.59;4187179;28;20635;-86
2023/11/07 00:35:36;;;;;;;1.80;1.13;;;;;;;10.54;98.18;97794.53;4209537;28;20682;-86
2023/11/07 00:37:40;;;;;;;1.80;1.10;;;;;;;10.55;97.19;97797.03;4177731;28;20620;-86
2023/11/07 00:39:45;;;;;;;1.33;1.00;;;;;;;10.53;97.53;97791.13;4187646;28;20657;-86
2023/11/07 00:41:48;;;;;;;1.53;0.90;;;;;;;10.53;97.66;97790.28;4189999;28;21413;-86
2023/11/07 00:43:51;;;;;;;1.70;1.13;;;;;;;10.50;97.59;97793.13;4184502;28;20648;-86
2023/11/07 00:45:54;;;;;;;1.53;0.80;;;;;;;10.49;97.35;97787.09;4190710;28;20675;-86
2023/11/07 00:47:57;;;;;;;3.03;1.57;;;;;;;10.49;96.95;97794.06;4191461;28;21025;-86
2023/11/07 00:50:01;;;;;;;1.90;1.00;;;;;;;10.50;96.73;97786.13;4173175;28;20632;-86
2023/11/07 00:52:04;;;;;;;1.43;0.70;;;;;;;10.47;95.93;97786.34;4178125;28;21007;-86
2023/11/07 00:54:10;;;;;;;2.23;0.90;;;;;;;10.48;95.47;97785.41;4172096;28;21010;-86
2023/11/07 00:56:14;;;;;;;1.50;1.00;;;;;;;10.51;95.64;97786.97;4173811;28;20621;-87
2023/11/07 00:58:20;;;;;;;1.77;1.10;;;;;;;10.50;96.52;97795.75;4177283;28;20690;-86
2023/11/07 01:00:24;;;;;;;2.40;1.40;;;;;;;10.52;96.78;97799.06;4193069;28;20682;-86
2023/11/07 01:02:27;;;;;;;3.23;1.47;;;;;;;10.51;95.30;97802.63;4173236;28;20628;-86
2023/11/07 01:04:30;;;;;;;2.40;1.37;;;;;;;10.50;96.12;97800.94;4184348;28;21014;-86
2023/11/07 01:06:34;;;;;;;3.50;1.40;;;;;;;10.45;95.42;97792.63;4188832;28;21296;-86
2023/11/07 01:08:37;;;;;;;3.40;1.37;;;;;;;10.46;95.76;97796.88;4193282;28;20202;-86
2023/11/07 01:10:40;;;;;;;2.73;1.73;;;;;;;10.45;95.91;97797.84;4188359;28;20631;-86
2023/11/07 01:12:45;;;;;;;1.97;1.43;;;;;;;10.45;96.08;97792.63;4175948;28;20723;-86
2023/11/07 01:14:48;;;;;;;3.73;1.37;;;;;;;10.42;96.02;97798.06;4172760;28;20651;-86
2023/11/07 01:16:52;;;;;;;6.70;1.43;;;;;;;10.39;95.81;97799.13;4167666;28;20632;-85
2023/11/07 01:18:55;;;;;;;1.93;1.30;;;;;;;10.38;95.80;97791.41;4185085;28;20682;-86
2023/11/07 01:20:58;;;;;;;1.93;1.20;;;;;;;10.39;95.64;97799.13;4187560;28;20619;-86
2023/11/07 01:23:01;;;;;;;2.30;1.33;;;;;;;10.40;95.70;97792.13;4188382;28;20627;-86
2023/11/07 01:25:05;;;;;;;2.63;1.60;;;;;;;10.36;96.38;97799.34;4186400;28;20636;-86
2023/11/07 01:27:07;;;;;;;2.33;1.90;;;;;;;10.31;95.58;97784.97;4175810;28;20609;-86
2023/11/07 01:29:12;;;;;;;2.97;1.90;;;;;;;10.27;95.87;97793.09;4191889;28;20721;-86
2023/11/07 01:31:15;;;;;;;2.33;1.80;;;;;;;10.22;95.61;97790.84;4209301;28;22475;-86
2023/11/07 01:33:19;;;;;;;2.97;1.80;;;;;;;10.18;95.71;97789.41;4191162;28;20655;-86
2023/11/07 01:35:22;;;;;;;2.33;1.70;;;;;;;10.11;95.69;97777.75;4191837;28;20659;-86
2023/11/07 01:37:26;;;;;;;2.23;1.53;;;;;;;10.07;95.58;97781.53;4204948;28;20663;-86
2023/11/07 01:39:29;;;;;;;3.40;1.87;;;;;;;10.04;95.54;97779.16;4165762;28;20658;-86
2023/11/07 01:41:32;;;;;;;2.20;1.60;;;;;;;10.03;95.62;97789.66;4182562;28;20635;-86
2023/11/07 01:43:36;;;;;;;2.57;1.53;;;;;;;10.02;96.07;97781.00;4211280;28;20629;-86
2023/11/07 01:45:40;;;;;;;3.03;1.57;;;;;;;9.97;96.21;97783.13;4166208;28;20628;-86
2023/11/07 01:47:44;;;;;;;1.97;1.70;;;;;;;9.95;96.04;97784.16;4178004;28;20636;-86
2023/11/07 01:49:47;;;;;;;2.70;1.37;;;;;;;9.96;96.57;97783.22;4192051;28;20635;-86
2023/11/07 01:51:51;;;;;;;1.63;1.35;;;;;;;9.94;95.79;97780.72;4177095;28;20621;-86
2023/11/07 01:53:54;;;;;;;3.30;1.77;;;;;;;9.94;96.32;97785.94;4203014;28;20210;-86
2023/11/07 01:55:58;;;;;;;2.13;1.50;;;;;;;9.94;96.11;97783.34;4192906;28;20671;-86
2023/11/07 01:58:02;;;;;;;1.83;1.57;;;;;;;9.93;96.67;97786.00;4211238;28;20726;-86
2023/11/07 02:00:11;;;;;;;2.95;1.55;;;;;;;9.90;95.78;97792.25;4191174;28;21194;-86
2023/11/07 02:02:18;;;;;;;2.53;1.30;;;;;;;9.85;96.71;97786.53;4191186;28;20591;-86
2023/11/07 02:04:23;;;;;;;1.87;1.17;;;;;;;9.85;96.69;97794.38;4165296;28;20780;-86
2023/11/07 02:06:26;;;;;;;3.77;1.10;;;;;;;9.86;96.85;97788.22;4175095;28;20712;-86
2023/11/07 02:08:29;;;;;;;2.67;1.20;;;;;;;9.90;96.73;97784.44;4168512;28;20621;-86
2023/11/07 02:10:34;;;;;;;2.20;1.73;;;;;;;9.84;96.60;97781.44;4194845;28;21223;-86
2023/11/07 02:12:38;;;;;;;1.53;1.23;;;;;;;9.81;96.50;97793.88;4184639;28;20659;-86
2023/11/07 02:14:43;;;;;;;1.05;0.80;;;;;;;9.84;95.83;97788.44;4195284;28;21176;-86
2023/11/07 02:16:46;;;;;;;2.70;1.27;;;;;;;9.88;95.27;97791.53;4190498;28;20279;-86
2023/11/07 02:18:51;;;;;;;2.13;0.97;;;;;;;9.93;95.37;97789.47;4189643;28;20706;-86
2023/11/07 02:20:55;;;;;;;1.27;0.93;;;;;;;10.02;95.35;97804.44;4177765;28;20715;-86
2023/11/07 02:23:03;;;;;;;2.03;0.80;;;;;;;10.05;94.06;97800.81;4197277;28;20630;-86
2023/11/07 02:25:12;;;;;;;2.70;1.43;;;;;;;10.07;95.17;97807.59;4175056;28;20209;-86
2023/11/07 02:27:18;;;;;;;4.80;1.00;;;;;;;10.06;95.19;97799.88;4195005;28;20633;-86
2023/11/07 02:29:21;;;;;;;2.13;1.10;;;;;;;10.04;94.17;97797.38;4172737;28;20630;-86
2023/11/07 02:31:24;;;;;;;1.27;0.87;;;;;;;10.05;94.44;97793.81;4190004;28;20700;-86
2023/11/07 02:33:27;;;;;;;2.40;0.80;;;;;;;10.10;94.47;97801.31;4192720;28;20697;-86
2023/11/07 02:35:31;;;;;;;2.60;0.70;;;;;;;10.12;93.89;97792.44;4210468;28;20189;-87
2023/11/07 02:37:35;;;;;;;1.20;0.67;;;;;;;10.16;94.72;97785.22;4172932;28;20629;-87
2023/11/07 02:39:38;;;;;;;2.33;0.90;;;;;;;10.19;94.49;97791.06;4190273;28;20635;-86
2023/11/07 02:41:44;;;;;;;1.67;0.70;;;;;;;10.19;94.47;97785.84;4171724;28;20678;-86
2023/11/07 02:43:48;;;;;;;1.20;0.80;;;;;;;10.16;94.61;97786.06;4184273;28;20620;-86
2023/11/07 02:45:51;;;;;;;1.20;0.80;;;;;;;10.18;93.99;97789.41;4177091;28;20621;-86
2023/11/07 02:47:54;;;;;;;1.30;0.80;;;;;;;10.17;94.33;97786.91;4211243;28;20681;-86
2023/11/07 02:49:57;;;;;;;2.50;1.10;;;;;;;10.16;94.00;97775.63;4192784;28;20652;-86
2023/11/07 02:52:01;;;;;;;2.17;0.87;;;;;;;10.13;94.36;97778.50;4191549;28;20206;-86
2023/11/07 02:54:03;;;;;;;1.93;1.40;;;;;;;10.10;94.25;97785.66;4191746;28;20623;-86
2023/11/07 02:56:06;;;;;;;1.70;0.87;;;;;;;10.02;93.90;97786.22;4176065;28;20691;-86
2023/11/07 02:58:13;;;;;;;1.40;0.90;;;;;;;9.97;93.99;97785.72;4173155;28;20740;-86
2023/11/07 03:00:17;;;;;;;1.53;0.90;;;;;;;9.96;93.81;97786.66;4173605;28;20659;-86
2023/11/07 03:02:20;;;;;;;2.07;0.80;;;;;;;9.93;94.31;97781.66;4190867;28;20680;-86
2023/11/07 03:04:24;;;;;;;1.37;0.70;;;;;;;9.94;94.58;97787.72;4203376;28;20642;-86
2023/11/07 03:06:27;;;;;;;2.30;0.90;;;;;;;9.89;94.61;97782.81;4186611;28;20727;-86
2023/11/07 03:08:30;;;;;;;2.37;1.00;;;;;;;9.86;95.27;97782.16;4191686;28;20624;-86
2023/11/07 03:10:34;;;;;;;1.90;1.03;;;;;;;9.84;94.73;97788.44;4193370;28;20639;-86
2023/11/07 03:12:38;;;;;;;1.20;0.77;;;;;;;9.80;94.71;97786.97;4174913;28;20613;-86
2023/11/07 03:14:43;;;;;;;4.33;1.00;;;;;;;9.79;94.67;97787.91;4188563;28;20663;-86
2023/11/07 03:16:46;;;;;;;2.50;1.00;;;;;;;9.80;95.16;97781.75;4187649;28;20649;-86
2023/11/07 03:18:49;;;;;;;1.93;0.90;;;;;;;9.79;94.82;97786.16;4177819;28;20636;-86
2023/11/07 03:20:53;;;;;;;1.77;0.70;;;;;;;9.81;94.00;97779.06;4200362;28;20616;-86
2023/11/07 03:22:56;;;;;;;4.40;0.80;;;;;;;9.85;94.38;97781.34;4177118;28;20617;-87
2023/11/07 03:24:59;;;;;;;1.13;0.70;;;;;;;9.86;94.37;97785.63;4193154;28;21030;-86
2023/11/07 03:27:02;;;;;;;1.07;0.70;;;;;;;9.87;94.03;97776.84;4185548;28;20724;-86
2023/11/07 03:29:06;;;;;;;1.27;0.73;;;;;;;9.92;93.14;97782.59;4191871;28;20734;-86
2023/11/07 03:31:10;;;;;;;1.87;0.87;;;;;;;9.96;93.29;97778.84;4194146;28;20647;-86
2023/11/07 03:33:16;;;;;;;1.93;0.60;;;;;;;10.00;93.64;97774.25;4174721;28;20621;-86
2023/11/07 03:35:19;;;;;;;3.60;0.90;;;;;;;10.04;93.07;97775.69;4168001;28;20636;-86
2023/11/07 03:37:23;;;;;;;2.20;0.73;;;;;;;10.07;92.38;97772.88;4190196;28;20701;-86
2023/11/07 03:39:26;;;;;;;1.53;1.00;;;;;;;10.11;92.88;97767.31;4189755;28;20681;-87
2023/11/07 03:41:30;;;;;;;2.30;0.70;;;;;;;10.14;93.08;97766.28;4166703;28;20637;-86
2023/11/07 03:43:33;;;;;;;2.80;0.87;;;;;;;10.14;92.62;97771.50;4202725;28;20633;-86
2023/11/07 03:45:36;;;;;;;1.43;0.70;;;;;;;10.15;92.32;97770.53;4184153;28;20639;-86
2023/11/07 03:47:41;;;;;;;1.23;0.70;;;;;;;10.17;92.68;97764.28;4182031;28;20648;-87
2023/11/07 03:49:45;;;;;;;1.13;0.70;;;;;;;10.19;92.51;97765.00;4181833;28;20686;-86
2023/11/07 03:51:48;;;;;;;1.57;0.90;;;;;;;10.20;92.46;97768.44;4191144;28;20759;-86
2023/11/07 03:53:51;;;;;;;1.33;0.80;;;;;;;10.20;92.14;97766.66;4191493;28;20627;-86
2023/11/07 03:55:54;;;;;;;1.73;0.80;;;;;;;10.24;92.21;97767.28;4174511;28;20665;-86
2023/11/07 03:57:57;;;;;;;1.40;0.90;;;;;;;10.24;92.15;97773.34;4175860;28;20668;-86
2023/11/07 04:00:01;;;;;;;1.73;0.70;;;;;;;10.26;92.00;97779.25;4192966;28;20640;-86
2023/11/07 04:02:07;;;;;;;4.83;1.10;;;;;;;10.31;91.41;97774.53;4190009;28;20626;-87
2023/11/07 04:04:11;;;;;;;1.00;0.57;;;;;;;10.30;90.55;97777.25;4188432;28;20640;-86
2023/11/07 04:06:15;;;;;;;2.87;0.90;;;;;;;10.27;91.01;97787.91;4177731;28;20743;-86
2023/11/07 04:08:18;;;;;;;1.93;0.80;;;;;;;10.28;90.82;97776.53;4188106;28;20630;-86
2023/11/07 04:10:21;;;;;;;1.30;0.70;;;;;;;10.23;91.17;97782.09;4184514;28;20617;-86
2023/11/07 04:12:25;;;;;;;1.63;0.60;;;;;;;10.22;91.02;97779.59;4185618;28;20635;-86
2023/11/07 04:14:28;;;;;;;1.60;0.70;;;;;;;10.20;91.18;97786.69;4188476;28;20631;-86
2023/11/07 04:16:32;;;;;;;1.20;0.80;;;;;;;10.19;91.27;97792.84;4178064;28;20674;-86
2023/11/07 04:18:35;;;;;;;3.40;0.70;;;;;;;10.16;90.37;97790.44;4190449;28;20677;-86
2023/11/07 04:20:41;;;;;;;0.90;0.63;;;;;;;10.15;90.77;97794.84;4174392;28;20664;-86
2023/11/07 04:22:46;;;;;;;1.43;0.60;;;;;;;10.11;90.98;97790.78;4189385;28;20636;-86
2023/11/07 04:24:50;;;;;;;3.33;0.90;;;;;;;10.03;90.89;97793.09;4174791;28;20743;-86
2023/11/07 04:26:53;;;;;;;1.67;0.80;;;;;;;9.95;91.33;97784.16;4185892;28;20667;-86
2023/11/07 04:28:56;;;;;;;1.53;0.70;;;;;;;9.92;91.45;97789.53;4175434;28;20620;-86
2023/11/07 04:31:00;;;;;;;1.40;0.90;;;;;;;9.88;91.41;97791.53;4171339;28;20723;-87
2023/11/07 04:33:04;;;;;;;1.60;0.60;;;;;;;9.83;92.41;97794.56;4200727;28;20670;-86
2023/11/07 04:35:11;;;;;;;1.93;0.93;;;;;;;9.81;91.85;97791.25;4173746;28;20739;-86
2023/11/07 04:37:15;;;;;;;1.43;0.73;;;;;;;9.80;91.94;97786.97;4169485;28;20657;-86
2023/11/07 04:39:19;;;;;;;1.00;0.77;;;;;;;9.76;92.34;97790.72;4185136;28;20674;-86
2023/11/07 04:41:22;;;;;;;1.93;0.70;;;;;;;9.77;92.85;97797.59;4188948;28;20671;-86
2023/11/07 04:43:25;;;;;;;6.03;1.13;;;;;;;9.78;92.23;97792.28;4207092;28;20674;-86
2023/11/07 04:45:29;;;;;;;1.30;0.70;;;;;;;9.78;92.54;97786.25;4180350;28;20770;-85
2023/11/07 04:47:32;;;;;;;2.20;0.70;;;;;;;9.80;92.70;97793.00;4173242;28;20641;-86
2023/11/07 04:49:35;;;;;;;1.27;0.77;;;;;;;9.84;92.55;97788.44;4173095;28;20657;-87
2023/11/07 04:51:39;;;;;;;2.70;0.90;;;;;;;9.82;92.77;97785.94;4203187;28;20627;-86
2023/11/07 04:53:44;;;;;;;1.13;0.77;;;;;;;9.83;93.08;97779.78;4185047;28;20690;-86
2023/11/07 04:55:49;;;;;;;1.63;0.80;;;;;;;9.86;93.25;97782.16;4187281;28;20646;-86
2023/11/07 04:57:53;;;;;;;2.67;1.10;;;;;;;9.85;92.80;97783.94;4201791;28;20654;-86
2023/11/07 04:59:55;;;;;;;1.70;0.90;;;;;;;9.87;93.03;97782.06;4181763;28;20631;-86
2023/11/07 05:01:58;;;;;;;0.90;0.57;;;;;;;9.88;92.93;97786.34;4201847;28;20635;-86
2023/11/07 05:04:02;;;;;;;1.80;0.90;;;;;;;9.89;92.73;97792.38;4196621;28;20197;-86
2023/11/07 05:06:06;;;;;;;1.50;0.90;;;;;;;9.90;92.68;97789.66;4188700;28;20698;-86
2023/11/07 05:08:10;;;;;;;3.17;0.80;;;;;;;9.95;92.19;97797.19;4168920;28;21068;-86
2023/11/07 05:10:17;;;;;;;1.40;0.70;;;;;;;9.98;92.07;97789.16;4172139;28;20637;-86
2023/11/07 05:12:21;;;;;;;1.67;0.70;;;;;;;10.03;91.61;97792.28;4189058;28;20640;-86
2023/11/07 05:14:24;;;;;;;3.57;0.80;;;;;;;10.09;91.72;97789.25;4183673;28;20743;-86
2023/11/07 05:16:27;;;;;;;2.90;0.90;;;;;;;10.13;91.48;97801.94;4186533;28;20647;-86
2023/11/07 05:18:29;;;;;;;1.98;0.80;;;;;;;10.16;92.00;97796.47;4201759;28;20661;-86
2023/11/07 05:20:33;;;;;;;1.80;0.83;;;;;;;10.17;91.40;97800.75;4174486;28;20208;-86
2023/11/07 05:22:37;;;;;;;2.10;1.00;;;;;;;10.19;90.71;97805.88;4184300;28;20695;-86
2023/11/07 05:24:41;;;;;;;2.10;0.83;;;;;;;10.21;90.75;97802.22;4192098;28;20723;-87
2023/11/07 05:26:45;;;;;;;1.33;0.73;;;;;;;10.22;91.13;97801.25;4170451;28;21333;-86
2023/11/07 05:28:48;;;;;;;1.53;0.90;;;;;;;10.20;90.28;97808.34;4186837;28;21094;-86
2023/11/07 05:30:52;;;;;;;2.27;0.83;;;;;;;10.17;89.43;97803.38;4182811;28;20656;-86
2023/11/07 05:32:55;;;;;;;2.80;0.80;;;;;;;10.12;89.38;97802.88;4182132;28;20651;-87
2023/11/07 05:34:58;;;;;;;3.83;0.90;;;;;;;10.17;89.50;97803.38;4188351;28;20670;-86
2023/11/07 05:37:01;;;;;;;2.40;0.90;;;;;;;10.20;88.88;97802.31;4203695;28;20689;-86
2023/11/07 05:39:03;;;;;;;1.83;0.70;;;;;;;10.21;89.05;97804.81;4190528;28;21229;-87
2023/11/07 05:41:07;;;;;;;1.23;0.80;;;;;;;10.22;88.29;97806.47;4187463;28;21221;-87
2023/11/07 05:43:12;;;;;;;1.00;0.60;;;;;;;10.24;89.02;97804.59;4173487;28;20657;-87
2023/11/07 05:45:15;;;;;;;3.83;0.90;;;;;;;10.27;89.21;97809.59;4199693;28;20632;-87
2023/11/07 05:47:19;;;;;;;2.73;0.90;;;;;;;10.27;88.21;97806.13;4194855;28;20619;-87
2023/11/07 05:49:22;;;;;;;3.53;0.83;;;;;;;10.27;87.71;97806.13;4175766;28;20712;-87
2023/11/07 05:51:26;;;;;;;1.53;1.00;;;;;;;10.26;87.74;97809.72;4210211;28;20657;-86
2023/11/07 05:53:29;;;;;;;1.60;0.73;;;;;;;10.25;87.36;97816.66;4192427;28;21235;-86
2023/11/07 05:55:31;;;;;;;1.50;0.80;;;;;;;10.24;87.78;97808.97;4209635;28;20662;-87
2023/11/07 05:57:35;;;;;;;1.07;0.80;;;;;;;10.24;88.20;97807.22;4192731;28;20619;-86
2023/11/07 05:59:40;;;;;;;2.23;0.90;;;;;;;10.21;87.96;97802.22;4184919;28;21213;-86
2023/11/07 06:01:42;;;;;;;1.47;0.90;;;;;;;10.23;87.71;97807.31;4210501;28;20640;-86
2023/11/07 06:03:45;;;;;;;1.30;0.80;;;;;;;10.26;87.69;97813.13;4208755;28;20700;-86
2023/11/07 06:05:49;;;;;;;1.30;0.80;;;;;;;10.23;88.02;97812.53;4184747;28;21305;-87
2023/11/07 06:07:55;;;;;;;1.30;0.80;;;;;;;10.21;87.27;97814.41;4210029;28;20654;-87
2023/11/07 06:09:58;;;;;;;1.80;0.70;;;;;;;10.24;87.56;97815.03;4184643;28;20748;-87
2023/11/07 06:12:01;;;;;;;1.10;0.60;;;;;;;10.21;87.53;97811.78;4207719;28;20726;-87
2023/11/07 06:14:04;;;;;;;1.20;0.90;;;;;;;10.20;87.40;97815.34;4179494;28;20628;-86
2023/11/07 06:16:09;;;;;;;3.33;0.70;;;;;;;10.18;87.90;97815.47;4177795;28;20640;-86
2023/11/07 06:18:12;;;;;;;1.73;1.00;;;;;;;10.20;87.69;97808.34;4169284;28;21141;-87
2023/11/07 06:20:21;;;;;;;1.33;0.90;;;;;;;10.22;87.80;97811.69;4211196;28;20684;-86
2023/11/07 06:22:25;;;;;;;1.60;0.60;;;;;;;10.23;87.37;97812.53;4207384;28;20622;-86
2023/11/07 06:24:28;;;;;;;1.10;0.80;;;;;;;10.26;87.53;97820.94;4190063;28;20619;-87
2023/11/07 06:26:31;;;;;;;1.70;0.80;;;;;;;10.26;87.39;97822.75;4190056;28;21192;-87
2023/11/07 06:28:35;;;;;;;2.67;1.00;;;;;;;10.32;88.00;97822.31;4208682;28;20680;-87
2023/11/07 06:30:38;;;;;;;1.00;0.80;;;;;;;10.36;88.04;97821.97;4202440;28;21336;-87
2023/11/07 06:32:42;;;;;;;1.60;0.90;;;;;;;10.36;87.14;97828.00;4207698;28;20630;-86
2023/11/07 06:34:47;;;;;;;1.80;0.90;;;;;;;10.41;87.31;97830.28;4206877;28;20622;-87
2023/11/07 06:36:52;;;;;;;1.37;1.00;;;;;;;10.41;86.88;97830.28;4180214;28;20647;-87
2023/11/07 06:38:56;;;;;;;1.70;1.00;;;;;;;10.51;87.04;97828.69;4178007;28;21049;-86
2023/11/07 06:40:59;;;;;;;1.80;0.80;;;;;;;10.57;86.40;97830.81;4193386;28;20735;-86
2023/11/07 06:43:03;;;;;;;2.30;1.20;;;;;;;10.70;86.74;97834.22;4189660;28;20635;-86
2023/11/07 06:45:07;;;;;;;2.40;1.33;;;;;;;10.85;85.29;97833.94;4190531;28;20632;-87
2023/11/07 06:47:10;;;;;;;1.17;0.73;;;;;;;10.93;85.23;97837.66;4192702;28;20710;-87
2023/11/07 06:49:15;;;;;;;2.27;1.10;;;;;;;11.02;85.70;97838.72;4206365;28;20668;-86
2023/11/07 06:51:18;;;;;;;1.20;0.70;;;;;;;11.15;84.17;97842.94;4208490;28;20634;-87
2023/11/07 06:53:22;;;;;;;1.33;0.90;;;;;;;11.30;84.62;97847.00;4174791;28;20625;-86
2023/11/07 06:55:25;;;;;;;1.10;0.77;;;;;;;11.45;83.54;97840.63;4196453;28;20626;-87
2023/11/07 06:57:29;;;;;;;2.10;1.30;;;;;;;11.56;83.84;97835.44;4193003;28;20724;-87
2023/11/07 06:59:32;;;;;;;2.63;1.00;;;;;;;11.67;82.49;97841.53;4183269;28;20648;-86
2023/11/07 07:01:35;;;;;;;2.40;1.13;;;;;;;11.76;81.67;97849.47;4198848;28;21037;-86
2023/11/07 07:03:39;;;;;;;2.90;1.20;;;;;;;11.87;82.65;97839.03;4188784;28;20629;-86
2023/11/07 07:05:44;;;;;;;1.53;1.00;;;;;;;12.03;81.79;97844.75;4180030;28;20620;-85
2023/11/07 07:07:48;;;;;;;1.30;1.00;;;;;;;12.12;81.85;97844.03;4211557;28;20649;-85
2023/11/07 07:09:51;;;;;;;1.10;0.80;;;;;;;11.98;80.29;97836.44;4173558;28;20646;-85
2023/11/07 07:11:55;;;;;;;2.57;1.30;;;;;;;11.88;81.95;97838.09;4179631;28;21394;-85
2023/11/07 07:13:58;;;;;;;1.40;0.90;;;;;;;11.76;79.89;97836.41;4212660;28;20650;-86
2023/11/07 07:16:03;;;;;;;2.20;1.03;;;;;;;11.78;79.67;97831.91;4195363;28;20714;-86
2023/11/07 07:18:06;;;;;;;2.67;0.90;;;;;;;11.81;79.99;97843.91;4192752;28;20713;-87
2023/11/07 07:20:12;;;;;;;2.00;1.00;;;;;;;11.92;80.52;97842.13;4183616;28;21236;-85
2023/11/07 07:22:27;;;;;;;2.30;1.53;;;;;;;11.99;80.56;97843.31;4187124;28;20739;-85
2023/11/07 07:24:31;;;;;;;1.50;0.97;;;;;;;12.25;79.58;97852.56;4184528;28;20824;-86
2023/11/07 07:26:37;;;;;;;1.10;0.80;;;;;;;12.36;78.40;97852.56;4194501;28;21189;-85
2023/11/07 07:28:40;;;;;;;1.83;1.00;;;;;;;12.35;79.41;97861.34;4190579;28;20662;-86
2023/11/07 07:30:45;;;;;;;1.43;0.70;;;;;;;12.25;78.34;97857.78;4170667;28;21244;-86
2023/11/07 07:32:47;;;;;;;2.10;1.20;;;;;;;12.03;78.12;97855.19;4169129;28;20742;-86
2023/11/07 07:34:51;;;;;;;1.40;1.00;;;;;;;11.93;80.53;97864.69;4176943;28;20621;-86
2023/11/07 07:36:54;;;;;;;1.80;1.03;;;;;;;11.88;80.00;97861.59;4208183;28;20612;-86
2023/11/07 07:39:00;;;;;;;2.00;1.00;;;;;;;11.84;79.77;97859.34;4204891;28;20659;-86
2023/11/07 07:41:05;;;;;;;1.50;0.90;;;;;;;11.88;81.84;97860.78;4190854;28;20706;-86
2023/11/07 07:43:10;;;;;;;3.57;1.00;;;;;;;11.90;81.26;97859.69;4180646;28;21104;-86
2023/11/07 07:45:14;;;;;;;1.43;0.90;;;;;;;12.11;80.29;97863.25;4187277;28;20629;-86
2023/11/07 07:47:17;;;;;;;1.80;1.20;;;;;;;12.42;79.27;97863.34;4191105;28;20723;-85
2023/11/07 07:49:23;;;;;;;3.07;1.10;;;;;;;12.69;79.69;97872.44;4203323;28;20676;-86
2023/11/07 07:51:27;;;;;;;1.80;1.00;;;;;;;12.98;78.19;97878.81;4185658;28;20723;-86
2023/11/07 07:53:34;;;;;;;2.40;1.00;;;;;;;13.22;79.31;97880.25;4189871;28;20659;-85
2023/11/07 07:55:43;;;;;;;1.30;0.90;;;;;;;13.36;78.45;97874.69;4189381;28;21209;-86
2023/11/07 07:57:46;;;;;;;1.10;0.70;;;;;;;13.51;77.55;97880.47;4192332;28;20658;-86
2023/11/07 07:59:49;;;;;;;1.43;0.80;;;;;;;13.48;78.29;97873.69;4186470;28;20651;-86
2023/11/07 08:01:55;;;;;;;4.70;3.03;;;;;;;13.29;77.74;97873.56;4182400;28;21243;-85
2023/11/07 08:03:58;;;;;;;2.80;1.00;;;;;;;13.09;79.09;97873.53;4173564;28;21124;-87
2023/11/07 08:06:02;;;;;;;1.10;0.70;;;;;;;12.83;78.70;97869.59;4193665;28;20707;-87
2023/11/07 08:08:07;;;;;;;1.53;0.80;;;;;;;12.63;79.25;97872.13;4178989;28;20671;-87
2023/11/07 08:10:16;;;;;;;1.73;0.83;;;;;;;12.46;80.18;97869.16;4173376;28;20624;-86
2023/11/07 08:12:21;;;;;;;1.50;0.83;;;;;;;12.42;80.47;97875.63;4195994;28;20635;-87
2023/11/07 08:14:24;;;;;;;2.23;1.20;;;;;;;12.24;79.99;97870.03;4174016;28;20687;-87
2023/11/07 08:16:27;;;;;;;1.77;0.93;;;;;;;12.16;80.71;97868.97;4177790;28;20659;-87
2023/11/07 08:18:30;;;;;;;1.63;0.90;;;;;;;12.17;81.32;97868.03;4206964;28;20629;-87
2023/11/07 08:20:34;;;;;;;2.13;0.93;;;;;;;12.14;81.73;97867.44;4189367;28;20728;-87
2023/11/07 08:22:37;;;;;;;1.63;0.90;;;;;;;12.10;82.06;97864.22;4172232;28;20731;-87
2023/11/07 08:24:41;;;;;;;2.00;1.10;;;;;;;12.07;81.83;97861.00;4198620;28;20644;-87
2023/11/07 08:26:44;;;;;;;1.30;0.80;;;;;;;12.01;82.63;97858.88;4209974;28;20726;-87
2023/11/07 08:28:51;;;;;;;1.20;0.70;;;;;;;11.95;83.53;97869.78;4208856;28;20665;-87
2023/11/07 08:30:54;;;;;;;1.93;0.80;;;;;;;11.85;81.24;97866.25;4191727;28;20658;-87
2023/11/07 08:32:59;;;;;;;1.93;1.10;;;;;;;11.83;81.78;97866.38;4204650;28;20628;-87
2023/11/07 08:35:05;;;;;;;1.83;0.93;;;;;;;11.74;81.64;97868.81;4188367;28;20722;-87
2023/11/07 08:37:10;;;;;;;1.40;0.80;;;;;;;11.77;81.35;97872.06;4206698;28;21094;-87
2023/11/07 08:39:23;;;;;;;2.63;1.00;;;;;;;11.65;82.63;97876.53;4177273;28;20640;-87
2023/11/07 08:41:27;;;;;;;2.53;1.00;;;;;;;11.70;82.01;97885.72;4203689;28;21024;-87
2023/11/07 08:43:31;;;;;;;2.70;0.93;;;;;;;11.77;83.43;97877.28;4193379;28;21033;-87
2023/11/07 08:45:35;;;;;;;1.90;0.80;;;;;;;11.84;82.96;97875.03;4192355;28;20653;-87
2023/11/07 08:47:38;;;;;;;1.30;0.83;;;;;;;11.80;81.49;97879.66;4191568;28;20671;-87
2023/11/07 08:49:42;;;;;;;1.47;1.10;;;;;;;11.78;83.44;97884.16;4187044;28;20643;-87
2023/11/07 08:51:50;;;;;;;1.67;1.00;;;;;;;11.69;82.79;97880.59;4174311;28;20621;-87
2023/11/07 08:53:55;;;;;;;3.13;0.93;;;;;;;11.69;82.38;97885.81;4193576;28;20631;-87
2023/11/07 08:55:58;;;;;;;1.53;1.10;;;;;;;11.71;82.76;97881.31;4203953;28;20616;-87
2023/11/07 08:58:03;;;;;;;6.43;2.90;;;;;;;11.71;82.71;97883.91;4173136;28;20627;-87
2023/11/07 09:00:08;;;;;;;3.43;0.90;;;;;;;11.75;83.91;97888.78;4184326;28;20655;-87
2023/11/07 09:02:13;;;;;;;2.77;1.03;;;;;;;11.81;83.87;97889.16;4187512;28;20623;-87
2023/11/07 09:04:17;;;;;;;1.80;0.97;;;;;;;11.82;82.52;97888.22;4172789;28;20635;-87
2023/11/07 09:06:20;;;;;;;1.33;0.90;;;;;;;11.89;82.65;97894.66;4208838;28;20618;-87
2023/11/07 09:08:24;;;;;;;1.73;0.90;;;;;;;11.91;82.66;97897.13;4186908;28;20611;-88
2023/11/07 09:10:27;;;;;;;2.60;1.00;;;;;;;11.93;82.37;97895.22;4190767;28;20635;-87
2023/11/07 09:12:30;;;;;;;3.00;1.03;;;;;;;11.84;82.79;97903.78;4193128;28;20655;-87
2023/11/07 09:14:34;;;;;;;1.60;1.00;;;;;;;11.84;85.00;97901.16;4211872;28;20619;-87
2023/11/07 09:16:37;;;;;;;1.87;1.20;;;;;;;11.87;85.09;97911.38;4193343;28;20635;-87
2023/11/07 09:18:42;;;;;;;1.10;0.80;;;;;;;11.86;85.41;97907.94;4188281;28;20619;-86
2023/11/07 09:20:46;;;;;;;2.33;1.10;;;;;;;11.85;84.73;97900.22;4182915;28;20652;-87
2023/11/07 09:22:49;;;;;;;1.93;1.10;;;;;;;11.85;83.85;97914.09;4190866;28;20617;-87
2023/11/07 09:24:52;;;;;;;1.30;0.90;;;;;;;11.80;83.57;97911.03;4192273;28;20619;-87
2023/11/07 09:26:55;;;;;;;1.83;1.10;;;;;;;11.74;83.13;97915.84;4190286;28;20625;-87
2023/11/07 09:28:59;;;;;;;1.50;0.90;;;;;;;11.73;83.01;97923.81;4180176;28;20620;-87
2023/11/07 09:31:02;;;;;;;2.13;1.00;;;;;;;11.73;83.93;97926.41;4205386;28;20654;-87
2023/11/07 09:33:06;;;;;;;3.27;1.30;;;;;;;11.65;86.38;97926.19;4178571;28;20636;-86
2023/11/07 09:35:14;;;;;;;1.70;1.30;;;;;;;11.58;87.24;97928.44;4195266;28;20628;-87
2023/11/07 09:37:17;;;;;;;2.70;1.00;;;;;;;11.60;88.36;97926.53;4194732;28;20659;-87
2023/11/07 09:39:21;;;;;;;1.60;0.93;;;;;;;11.65;89.64;97928.78;4191092;28;20632;-87
2023/11/07 09:41:25;;;;;;;2.33;1.00;;;;;;;11.75;89.63;97940.22;4192083;28;20659;-87
2023/11/07 09:43:28;;;;;;;2.67;1.23;;;;;;;11.76;88.20;97930.47;4191758;28;20646;-87